<?xml version="1.0" encoding="UTF-8" standalone="no" ?>
<gpx xmlns="http://www.topografix.com/GPX/1/1" xmlns:xsi="http://www.w3.org/2001/XMLSchema-instance" xsi:schemaLocation="http://www.topografix.com/GPX/1/1 http://www.topografix.com/GPX/1/1/gpx.xsd" version="1.1" creator="VisuGPX - https://www.visugpx.com">
  <metadata>
    <name>boucles beaumont</name>
    <desc><![CDATA[boucles beaumont du périgord]]></desc>
  </metadata>
  <trk>
    <name><![CDATA[BBmt10]]></name>
    <trkseg>
      <trkpt lat="44.725" lon="0.75833">
        <ele>146</ele>
        <time>2008-12-03T13:29:39Z</time>
      </trkpt>
      <trkpt lat="44.7252" lon="0.75835">
        <ele>148</ele>
        <time>2008-12-03T13:30:04Z</time>
      </trkpt>
      <trkpt lat="44.7254" lon="0.7583">
        <ele>152</ele>
        <time>2008-12-03T13:30:11Z</time>
      </trkpt>
      <trkpt lat="44.72538" lon="0.75858">
        <ele>154</ele>
        <time>2008-12-03T13:30:34Z</time>
      </trkpt>
      <trkpt lat="44.7252" lon="0.75873">
        <ele>152</ele>
        <time>2008-12-03T13:30:37Z</time>
      </trkpt>
      <trkpt lat="44.72503" lon="0.75883">
        <ele>151</ele>
        <time>2008-12-03T13:30:40Z</time>
      </trkpt>
      <trkpt lat="44.72483" lon="0.75888">
        <ele>151</ele>
        <time>2008-12-03T13:30:44Z</time>
      </trkpt>
      <trkpt lat="44.72475" lon="0.75913">
        <ele>151</ele>
        <time>2008-12-03T13:30:54Z</time>
      </trkpt>
      <trkpt lat="44.7248" lon="0.7595">
        <ele>150</ele>
        <time>2008-12-03T13:30:58Z</time>
      </trkpt>
      <trkpt lat="44.72483" lon="0.75988">
        <ele>150</ele>
        <time>2008-12-03T13:31:01Z</time>
      </trkpt>
      <trkpt lat="44.72485" lon="0.76015">
        <ele>151</ele>
        <time>2008-12-03T13:31:03Z</time>
      </trkpt>
      <trkpt lat="44.72488" lon="0.76048">
        <ele>151</ele>
        <time>2008-12-03T13:31:05Z</time>
      </trkpt>
      <trkpt lat="44.72493" lon="0.76095">
        <ele>151</ele>
        <time>2008-12-03T13:31:08Z</time>
      </trkpt>
      <trkpt lat="44.72498" lon="0.7613">
        <ele>151</ele>
        <time>2008-12-03T13:31:10Z</time>
      </trkpt>
      <trkpt lat="44.72503" lon="0.76163">
        <ele>150</ele>
        <time>2008-12-03T13:31:12Z</time>
      </trkpt>
      <trkpt lat="44.72513" lon="0.76213">
        <ele>150</ele>
        <time>2008-12-03T13:31:15Z</time>
      </trkpt>
      <trkpt lat="44.7253" lon="0.76263">
        <ele>151</ele>
        <time>2008-12-03T13:31:18Z</time>
      </trkpt>
      <trkpt lat="44.72543" lon="0.763">
        <ele>152</ele>
        <time>2008-12-03T13:31:20Z</time>
      </trkpt>
      <trkpt lat="44.72558" lon="0.76335">
        <ele>153</ele>
        <time>2008-12-03T13:31:22Z</time>
      </trkpt>
      <trkpt lat="44.72578" lon="0.76388">
        <ele>153</ele>
        <time>2008-12-03T13:31:25Z</time>
      </trkpt>
      <trkpt lat="44.7259" lon="0.76423">
        <ele>154</ele>
        <time>2008-12-03T13:31:27Z</time>
      </trkpt>
      <trkpt lat="44.72598" lon="0.76458">
        <ele>155</ele>
        <time>2008-12-03T13:31:29Z</time>
      </trkpt>
      <trkpt lat="44.72605" lon="0.76493">
        <ele>155</ele>
        <time>2008-12-03T13:31:31Z</time>
      </trkpt>
      <trkpt lat="44.72623" lon="0.7654">
        <ele>156</ele>
        <time>2008-12-03T13:31:34Z</time>
      </trkpt>
      <trkpt lat="44.72633" lon="0.76565">
        <ele>157</ele>
        <time>2008-12-03T13:31:36Z</time>
      </trkpt>
    </trkseg>
  </trk>
</gpx>